createdAt,value
2022-12-17T04:02:02.644Z,0.1
2022-12-17T04:04:01.179Z,0.2
2022-12-17T04:05:01.139Z,0.3
2022-12-17T04:07:01.343Z,0.4
2022-12-17T04:08:01.105Z,0.5
2022-12-17T04:10:01.165Z,0.6
2022-12-17T04:11:01.107Z,0.7
2022-12-17T04:13:01.452Z,0.8
2022-12-17T04:14:01.112Z,0.9
2022-12-17T04:15:01.133Z,0.9
2022-12-17T04:16:01.154Z,1.0
2022-12-17T04:30:01.174Z,1.0
2022-12-17T04:45:01.203Z,1.0
2022-12-17T05:00:01.166Z,1.0
2022-12-17T05:15:01.421Z,1.0
2022-12-17T05:30:01.189Z,1.0
2022-12-17T05:45:01.322Z,1.0
2022-12-17T06:00:03.337Z,1.0
2022-12-17T06:15:01.404Z,1.0
2022-12-17T06:30:01.494Z,1.0
2022-12-17T06:34:01.105Z,1.1
2022-12-17T06:36:01.321Z,1.2
2022-12-17T06:37:01.113Z,1.3
2022-12-17T06:39:01.119Z,1.4
2022-12-17T06:40:01.109Z,1.5
2022-12-17T06:42:04.441Z,1.7
2022-12-17T06:43:01.130Z,1.8
2022-12-17T06:44:01.116Z,1.9
2022-12-17T06:45:01.124Z,2.1
2022-12-17T06:46:01.140Z,2.2
2022-12-17T06:47:03.452Z,2.4
2022-12-17T06:48:01.756Z,2.6
2022-12-17T06:49:01.117Z,2.9
2022-12-17T06:50:01.770Z,3.1
2022-12-17T06:51:01.123Z,3.4
2022-12-17T06:52:01.326Z,3.8
2022-12-17T06:53:01.133Z,4.2
2022-12-17T06:54:01.120Z,4.9
2022-12-17T06:55:01.154Z,5.5
2022-12-17T06:56:01.116Z,6.2
2022-12-17T06:57:01.323Z,7.1
2022-12-17T06:58:01.134Z,8.1
2022-12-17T06:59:01.131Z,9.8
2022-12-17T07:00:01.115Z,11.5
2022-12-17T07:01:01.142Z,13.3
2022-12-17T07:02:01.546Z,15.7
2022-12-17T07:03:02.394Z,18.2
2022-12-17T07:04:01.112Z,21.5
2022-12-17T07:05:01.141Z,24.9
2022-12-17T07:06:01.178Z,28.2
2022-12-17T07:07:01.386Z,33.3
2022-12-17T07:08:01.178Z,38.5
2022-12-17T07:09:01.131Z,46.5
2022-12-17T07:10:01.114Z,54.5
2022-12-17T07:11:01.115Z,62.5
2022-12-17T07:12:01.466Z,72.4
2022-12-17T07:13:01.153Z,82.3
2022-12-17T07:14:01.117Z,94.9
2022-12-17T07:15:01.127Z,107.4
2022-12-17T07:16:01.205Z,119.9
2022-12-17T07:17:01.373Z,138.3
2022-12-17T07:19:01.251Z,165.0
2022-12-17T07:20:01.152Z,190.7
2022-12-17T07:21:01.109Z,216.3
2022-12-17T07:22:01.149Z,250.8
2022-12-17T07:23:06.840Z,283.3
2022-12-17T07:24:01.111Z,330.0
2022-12-17T07:25:01.189Z,373.5
2022-12-17T07:26:01.117Z,417.1
2022-12-17T07:27:01.150Z,466.9
2022-12-17T07:28:01.344Z,514.4
2022-12-17T07:29:01.116Z,584.9
2022-12-17T07:30:01.115Z,652.1
2022-12-17T07:31:01.111Z,719.2
2022-12-17T07:32:03.053Z,807.3
2022-12-17T07:33:01.890Z,888.8
2022-12-17T07:34:01.113Z,986.2
2022-12-17T07:35:01.148Z,1083.6
2022-12-17T07:36:06.113Z,1181.0
2022-12-17T07:37:01.155Z,1284.8
2022-12-17T07:38:01.439Z,1388.6
2022-12-17T07:39:01.322Z,1504.7
2022-12-17T07:40:01.114Z,1620.7
2022-12-17T07:41:01.114Z,1736.8
2022-12-17T07:42:01.157Z,1877.2
2022-12-17T07:43:06.355Z,2017.6
2022-12-17T07:44:01.113Z,2170.1
2022-12-17T07:45:01.140Z,2322.5
2022-12-17T07:46:01.369Z,2475.0
2022-12-17T07:47:01.146Z,2616.3
2022-12-17T07:48:03.025Z,2757.7
2022-12-17T07:49:01.121Z,2891.8
2022-12-17T07:50:01.118Z,3025.9
2022-12-17T07:51:01.146Z,3160.1
2022-12-17T07:52:01.196Z,3322.4
2022-12-17T07:53:01.347Z,3484.7
2022-12-17T07:54:01.145Z,3619.1
2022-12-17T07:55:01.869Z,3753.4
2022-12-17T07:56:01.121Z,3887.7
2022-12-17T07:57:01.151Z,4039.3
2022-12-17T07:58:06.749Z,4190.8
2022-12-17T07:59:01.135Z,4352.5
2022-12-17T08:00:01.124Z,4514.3
2022-12-17T08:01:01.153Z,4676.0
2022-12-17T08:02:01.669Z,4862.3
2022-12-17T08:03:02.944Z,5048.7
2022-12-17T08:05:01.111Z,5277.3
2022-12-17T08:06:01.437Z,5505.9
2022-12-17T08:07:05.593Z,5714.3
2022-12-17T08:08:01.113Z,5879.3
2022-12-17T08:09:02.741Z,6123.9
2022-12-17T08:10:01.230Z,6370.2
2022-12-17T08:11:02.139Z,6616.5
2022-12-17T08:12:01.111Z,6874.5
2022-12-17T08:13:01.114Z,7084.7
2022-12-17T08:14:01.336Z,7306.1
2022-12-17T08:15:01.226Z,7482.3
2022-12-17T08:16:01.122Z,7658.5
2022-12-17T08:17:01.265Z,7897.9
2022-12-17T08:18:01.112Z,8102.7
2022-12-17T08:19:07.092Z,8362.8
2022-12-17T08:20:01.125Z,8563.6
2022-12-17T08:21:01.115Z,8764.4
2022-12-17T08:22:01.117Z,8990.3
2022-12-17T08:23:01.309Z,9216.1
2022-12-17T08:24:01.327Z,9464.2
2022-12-17T08:25:01.113Z,9712.3
2022-12-17T08:26:01.116Z,9960.3
2022-12-17T08:27:01.112Z,10187.0
2022-12-17T08:28:04.531Z,10413.7
2022-12-17T08:29:01.348Z,10691.6
2022-12-17T08:30:01.124Z,10969.5
2022-12-17T08:31:01.174Z,11247.5
2022-12-17T08:32:01.409Z,11636.1
2022-12-17T08:33:01.124Z,12024.8
2022-12-17T08:34:09.096Z,12502.7
2022-12-17T08:35:01.114Z,12980.5
2022-12-17T08:36:01.120Z,13458.4
2022-12-17T08:37:01.257Z,13856.3
2022-12-17T08:38:01.208Z,14254.3
2022-12-17T08:39:01.532Z,14576.7
2022-12-17T08:40:01.183Z,14899.1
2022-12-17T08:41:01.160Z,15221.5
2022-12-17T08:42:04.431Z,15476.1
2022-12-17T08:43:01.120Z,15730.7
2022-12-17T08:44:02.112Z,16094.7
2022-12-17T08:46:01.251Z,16458.7
2022-12-17T08:47:01.273Z,16900.3
2022-12-17T08:48:04.012Z,17168.0
2022-12-17T08:49:01.128Z,17340.9
2022-12-17T08:50:01.348Z,17369.3
2022-12-17T08:51:02.135Z,17397.8
2022-12-17T08:52:01.141Z,17390.2
2022-12-17T08:53:01.107Z,17457.7
2022-12-17T08:54:01.105Z,17278.5
2022-12-17T08:55:01.357Z,17073.1
2022-12-17T08:56:01.111Z,16867.6
2022-12-17T08:57:01.173Z,16681.3
2022-12-17T08:58:01.110Z,16572.4
2022-12-17T08:59:01.114Z,16589.0
2022-12-17T09:01:01.250Z,16278.3
2022-12-17T09:02:01.251Z,16220.0
2022-12-17T09:03:01.399Z,16161.7
2022-12-17T09:04:01.103Z,15883.1
2022-12-17T09:05:01.437Z,15604.5
2022-12-17T09:06:01.118Z,15325.9
2022-12-17T09:07:01.140Z,15099.4
2022-12-17T09:08:01.109Z,14872.9
2022-12-17T09:09:01.114Z,15000.1
2022-12-17T09:10:01.335Z,15127.3
2022-12-17T09:11:01.153Z,15254.5
2022-12-17T09:12:01.156Z,16092.9
2022-12-17T09:13:04.545Z,16931.2
2022-12-17T09:14:01.147Z,17724.7
2022-12-17T09:16:01.181Z,19311.6
2022-12-17T09:17:01.273Z,19565.6
2022-12-17T09:18:01.117Z,19819.6
2022-12-17T09:19:01.147Z,20098.3
2022-12-17T09:20:01.348Z,20377.1
2022-12-17T09:21:01.112Z,20655.8
2022-12-17T09:22:01.147Z,20847.3
2022-12-17T09:23:02.149Z,21038.9
2022-12-17T09:24:01.119Z,21620.0
2022-12-17T09:25:01.406Z,22201.1
2022-12-17T09:26:01.132Z,22782.3
2022-12-17T09:27:01.174Z,22901.1
2022-12-17T09:28:01.116Z,23020.0
2022-12-17T09:29:01.131Z,23053.5
2022-12-17T09:31:01.225Z,23120.4
2022-12-17T09:32:02.410Z,23668.5
2022-12-17T09:33:01.250Z,24216.7
2022-12-17T09:34:01.127Z,25099.0
2022-12-17T09:35:01.685Z,25981.3
2022-12-17T09:36:01.127Z,26863.7
2022-12-17T09:38:01.106Z,27960.3
2022-12-17T09:39:01.114Z,28880.5
2022-12-17T09:41:01.108Z,29727.7
2022-12-17T09:42:01.115Z,30339.7
2022-12-17T09:43:01.144Z,30683.6
2022-12-17T09:44:06.109Z,30923.9
2022-12-17T09:46:01.573Z,31414.2
2022-12-17T09:47:01.115Z,31916.9
2022-12-17T09:48:01.113Z,32269.7
2022-12-17T09:49:01.108Z,32636.1
2022-12-17T09:50:01.618Z,32958.7
2022-12-17T09:51:01.206Z,33281.3
2022-12-17T09:52:01.111Z,33815.2
2022-12-17T09:53:01.118Z,34205.9
2022-12-17T09:54:01.183Z,34646.3
2022-12-17T09:56:02.208Z,35526.9
2022-12-17T09:57:01.194Z,35690.2
2022-12-17T09:58:01.191Z,35853.5
2022-12-17T09:59:01.216Z,36261.7
2022-12-17T10:01:01.499Z,37078.3
2022-12-17T10:02:01.317Z,37373.3
2022-12-17T10:03:01.476Z,37668.4
2022-12-17T10:04:06.118Z,38541.8
2022-12-17T10:05:07.448Z,39415.2
2022-12-17T10:06:01.182Z,40288.6
2022-12-17T10:07:01.197Z,40665.4
2022-12-17T10:08:01.249Z,41042.2
2022-12-17T10:09:01.177Z,41554.1
2022-12-17T10:10:01.480Z,42065.9
2022-12-17T10:11:01.187Z,42577.8
2022-12-17T10:12:01.188Z,43241.7
2022-12-17T10:13:01.257Z,43905.5
2022-12-17T10:14:01.136Z,44352.3
2022-12-17T10:16:01.235Z,45245.9
2022-12-17T10:17:01.222Z,45733.7
2022-12-17T10:18:01.119Z,46221.4
2022-12-17T10:19:01.115Z,45687.3
2022-12-17T10:20:01.347Z,45153.1
2022-12-17T10:22:01.100Z,44792.0
2022-12-17T10:23:01.140Z,44716.2
2022-12-17T10:24:01.111Z,44423.5
2022-12-17T10:25:01.105Z,44122.4
2022-12-17T10:26:01.959Z,43821.3
2022-12-17T10:27:01.106Z,43755.6
2022-12-17T10:28:01.141Z,43626.6
2022-12-17T10:29:01.108Z,43361.8
2022-12-17T10:30:01.116Z,43172.7
2022-12-17T10:31:01.530Z,42983.5
2022-12-17T10:32:01.131Z,43260.9
2022-12-17T10:33:01.145Z,43352.9
2022-12-17T10:34:01.224Z,43139.5
2022-12-17T10:35:05.112Z,43356.1
2022-12-17T10:36:02.832Z,43572.7
2022-12-17T10:37:01.131Z,43751.0
2022-12-17T10:38:01.175Z,43929.3
2022-12-17T10:39:01.173Z,44486.6
2022-12-17T10:40:01.128Z,45043.9
2022-12-17T10:41:02.652Z,45601.3
2022-12-17T10:42:01.116Z,46051.7
2022-12-17T10:43:01.163Z,46502.1
2022-12-17T10:44:01.202Z,47121.1
2022-12-17T10:45:01.120Z,47740.2
2022-12-17T10:46:02.259Z,48359.3
2022-12-17T10:47:01.140Z,48265.5
2022-12-17T10:48:01.146Z,48171.7
2022-12-17T10:49:01.120Z,48383.3
2022-12-17T10:50:01.138Z,47525.9
2022-12-17T10:51:01.854Z,46668.5
2022-12-17T10:52:01.115Z,47051.6
2022-12-17T10:53:07.422Z,47434.7
2022-12-17T10:54:01.213Z,47655.6
2022-12-17T10:55:01.230Z,47711.1
2022-12-17T10:56:01.775Z,47766.5
2022-12-17T10:57:01.122Z,47581.1
2022-12-17T10:58:01.154Z,47395.6
2022-12-17T10:59:01.140Z,47177.3
2022-12-17T11:00:01.188Z,46912.0
2022-12-17T11:01:01.780Z,46646.7
2022-12-17T11:02:01.221Z,46344.5
2022-12-17T11:03:01.503Z,46042.2
2022-12-17T11:04:01.119Z,45739.9
2022-12-17T11:05:01.121Z,46633.2
2022-12-17T11:06:01.339Z,47526.5
2022-12-17T11:07:01.130Z,47239.7
2022-12-17T11:09:01.134Z,46952.9
2022-12-17T11:10:05.485Z,46465.2
2022-12-17T11:11:01.406Z,46143.0
2022-12-17T11:12:05.719Z,45787.0
2022-12-17T11:13:01.115Z,45543.5
2022-12-17T11:14:01.179Z,45300.1
2022-12-17T11:15:01.111Z,45027.1
2022-12-17T11:16:03.718Z,44801.0
2022-12-17T11:17:01.105Z,44619.1
2022-12-17T11:18:01.107Z,44720.5
2022-12-17T11:19:01.189Z,44822.0
2022-12-17T11:20:01.103Z,44964.1
2022-12-17T11:21:01.337Z,44979.8
2022-12-17T11:22:01.112Z,45223.3
2022-12-17T11:23:01.117Z,45271.8
2022-12-17T11:24:01.179Z,45320.3
2022-12-17T11:25:01.104Z,45533.1
2022-12-17T11:26:01.342Z,45745.9
2022-12-17T11:27:01.118Z,45820.0
2022-12-17T11:28:01.120Z,45894.1
2022-12-17T11:29:01.242Z,45968.3
2022-12-17T11:30:01.110Z,46008.5
2022-12-17T11:31:02.474Z,46048.8
2022-12-17T11:32:01.109Z,46544.9
2022-12-17T11:33:01.103Z,47040.9
2022-12-17T11:34:01.148Z,47537.0
2022-12-17T11:35:01.170Z,47913.8
2022-12-17T11:36:03.696Z,48290.6
2022-12-17T11:37:01.106Z,47995.7
2022-12-17T11:38:01.119Z,47700.7
2022-12-17T11:39:01.195Z,47405.8
2022-12-17T11:40:01.115Z,47371.8
2022-12-17T11:41:01.995Z,47337.8
2022-12-17T11:42:02.059Z,47582.3
2022-12-17T11:43:01.111Z,47826.7
2022-12-17T11:44:01.149Z,48071.2
2022-12-17T11:45:01.124Z,48221.8
2022-12-17T11:46:01.358Z,48372.4
2022-12-17T11:47:01.176Z,48146.1
2022-12-17T11:48:01.120Z,47919.7
2022-12-17T11:49:01.219Z,47693.4
2022-12-17T11:50:02.141Z,46998.3
2022-12-17T11:51:03.377Z,46303.3
2022-12-17T11:52:01.119Z,45101.7
2022-12-17T11:53:01.112Z,43900.1
2022-12-17T11:54:01.157Z,42698.5
2022-12-17T11:55:01.127Z,42056.1
2022-12-17T11:56:01.331Z,41413.8
2022-12-17T11:57:01.123Z,41083.5
2022-12-17T11:58:01.112Z,40753.1
2022-12-17T11:59:01.204Z,40422.8
2022-12-17T12:00:04.236Z,40052.4
2022-12-17T12:01:17.301Z,39682.0
2022-12-17T12:02:01.456Z,39422.7
2022-12-17T12:03:01.257Z,39163.5
2022-12-17T12:04:02.203Z,38904.2
2022-12-17T12:05:01.128Z,39169.1
2022-12-17T12:06:01.757Z,39434.1
2022-12-17T12:07:01.397Z,40830.6
2022-12-17T12:08:01.183Z,42227.1
2022-12-17T12:09:01.119Z,43623.7
2022-12-17T12:10:01.121Z,44144.4
2022-12-17T12:11:01.744Z,44665.1
2022-12-17T12:13:01.537Z,44642.2
2022-12-17T12:14:01.102Z,44619.3
2022-12-17T12:15:01.114Z,44636.4
2022-12-17T12:16:01.211Z,44850.9
2022-12-17T12:17:01.746Z,45065.3
2022-12-17T12:18:02.479Z,45045.7
2022-12-17T12:19:01.189Z,45026.0
2022-12-17T12:20:01.108Z,45015.1
2022-12-17T12:21:01.111Z,45027.4
2022-12-17T12:22:01.815Z,44954.4
2022-12-17T12:23:01.363Z,44700.2
2022-12-17T12:24:01.146Z,44446.0
2022-12-17T12:25:01.117Z,44062.8
2022-12-17T12:26:01.152Z,43771.7
2022-12-17T12:27:01.728Z,43425.9
2022-12-17T12:28:01.324Z,43205.8
2022-12-17T12:29:01.136Z,42985.7
2022-12-17T12:30:01.178Z,42584.6
2022-12-17T12:31:01.107Z,42183.5
2022-12-17T12:32:01.207Z,41569.5
2022-12-17T12:33:04.276Z,40955.4
2022-12-17T12:34:01.152Z,40341.3
2022-12-17T12:35:01.118Z,39936.1
2022-12-17T12:36:01.119Z,39530.9
2022-12-17T12:37:01.553Z,38933.5
2022-12-17T12:38:01.349Z,38336.1
2022-12-17T12:39:01.185Z,37738.7
2022-12-17T12:40:01.113Z,37325.9
2022-12-17T12:41:01.115Z,36913.0
2022-12-17T12:42:01.748Z,36455.2
2022-12-17T12:43:01.329Z,35997.4
2022-12-17T12:44:01.154Z,35539.6
2022-12-17T12:45:01.130Z,34978.7
2022-12-17T12:46:01.198Z,34417.7
2022-12-17T12:47:01.138Z,34128.3
2022-12-17T12:48:01.337Z,33838.8
2022-12-17T12:49:01.167Z,33549.3
2022-12-17T12:50:01.131Z,33088.2
2022-12-17T12:51:01.115Z,32627.1
2022-12-17T12:52:01.594Z,32461.1
2022-12-17T12:53:01.338Z,32295.2
2022-12-17T12:54:01.164Z,32129.3
2022-12-17T12:55:01.141Z,32103.1
2022-12-17T12:56:01.124Z,32077.0
2022-12-17T12:57:01.130Z,31713.1
2022-12-17T12:58:01.333Z,31349.3
2022-12-17T12:59:01.191Z,30985.4
2022-12-17T13:01:01.158Z,30492.7
2022-12-17T13:02:07.675Z,29976.7
2022-12-17T13:03:01.393Z,29402.1
2022-12-17T13:04:01.153Z,28827.6
2022-12-17T13:05:01.110Z,28310.1
2022-12-17T13:06:01.195Z,27746.5
2022-12-17T13:07:01.120Z,26971.5
2022-12-17T13:08:01.394Z,26178.7
2022-12-17T13:09:01.144Z,25385.9
2022-12-17T13:10:01.105Z,25027.3
2022-12-17T13:11:01.127Z,24473.5
2022-12-17T13:12:02.329Z,23480.9
2022-12-17T13:13:04.597Z,22925.7
2022-12-17T13:14:02.224Z,22370.5
2022-12-17T13:15:02.222Z,21655.6
2022-12-17T13:16:01.164Z,21313.5
2022-12-17T13:17:01.781Z,21532.3
2022-12-17T13:18:01.341Z,21751.0
2022-12-17T13:19:01.143Z,21969.7
2022-12-17T13:20:01.442Z,22338.7
2022-12-17T13:21:01.108Z,22707.7
2022-12-17T13:22:02.171Z,23012.7
2022-12-17T13:23:01.319Z,23317.7
2022-12-17T13:24:01.152Z,23622.7
2022-12-17T13:25:01.112Z,23490.3
2022-12-17T13:26:01.178Z,23357.8
2022-12-17T13:27:01.213Z,23743.1
2022-12-17T13:28:01.321Z,24128.5
2022-12-17T13:29:01.224Z,24513.8
2022-12-17T13:30:01.127Z,24916.3
2022-12-17T13:31:01.120Z,25318.9
2022-12-17T13:32:02.133Z,25084.2
2022-12-17T13:33:01.335Z,24849.5
2022-12-17T13:34:01.148Z,24614.9
2022-12-17T13:35:04.393Z,24230.7
2022-12-17T13:36:01.136Z,23846.6
2022-12-17T13:37:01.127Z,23647.3
2022-12-17T13:38:01.349Z,23448.1
2022-12-17T13:39:01.189Z,23248.8
2022-12-17T13:40:01.120Z,23022.4
2022-12-17T13:41:03.032Z,22796.0
2022-12-17T13:42:01.138Z,22589.5
2022-12-17T13:43:01.360Z,22383.1
2022-12-17T13:44:01.153Z,22176.6
2022-12-17T13:45:01.130Z,21899.7
2022-12-17T13:46:01.237Z,21622.9
2022-12-17T13:48:01.313Z,21414.4
2022-12-17T13:49:01.144Z,21205.9
2022-12-17T14:15:02.931Z,9990.0
2022-12-17T14:17:00.843Z,10014.7
2022-12-17T14:18:00.816Z,10027.0
2022-12-17T14:19:00.781Z,10034.4
2022-12-17T14:20:01.013Z,9853.3
2022-12-17T14:21:00.808Z,9724.0
2022-12-17T14:22:01.836Z,9543.1
2022-12-17T14:23:00.793Z,9402.4
2022-12-17T14:24:00.792Z,9289.9
2022-12-17T14:26:00.789Z,9037.9
2022-12-17T14:27:00.816Z,8849.9
2022-12-17T14:28:00.791Z,8688.8
2022-12-17T14:29:00.798Z,8549.1
2022-12-17T14:31:25.965Z,8057.3
2022-12-17T14:32:00.840Z,7765.2
2022-12-17T14:33:00.793Z,7473.1
2022-12-17T14:34:00.809Z,7181.1
2022-12-17T14:35:01.363Z,6924.3
2022-12-17T14:36:00.856Z,6667.5
2022-12-17T14:37:00.797Z,6412.5
2022-12-17T14:38:00.793Z,6157.5
2022-12-17T14:39:00.863Z,5902.5
2022-12-17T14:40:01.042Z,5662.7
2022-12-17T14:41:00.826Z,5422.9
2022-12-17T14:42:01.818Z,5234.0
2022-12-17T14:43:00.796Z,5045.1
2022-12-17T14:44:00.793Z,4856.3
2022-12-17T14:46:00.832Z,4461.2
2022-12-17T14:47:01.124Z,4288.8
2022-12-17T14:48:00.980Z,4116.4
2022-12-17T14:49:00.793Z,3944.0
2022-12-17T14:51:00.805Z,3613.2
2022-12-17T14:52:00.803Z,3471.8
2022-12-17T14:53:00.821Z,3330.4
2022-12-17T14:54:00.805Z,3189.0
2022-12-17T14:55:01.017Z,3049.5
2022-12-17T14:56:00.797Z,2910.1
2022-12-17T14:57:00.814Z,2775.3
2022-12-17T14:58:00.800Z,2640.6
2022-12-17T14:59:00.790Z,2505.9
2022-12-17T15:00:03.823Z,2382.5
2022-12-17T15:01:00.839Z,2259.2
2022-12-17T15:02:00.927Z,2137.1
2022-12-17T15:03:01.054Z,2014.9
2022-12-17T15:04:00.843Z,1892.8
2022-12-17T15:05:02.078Z,1786.1
2022-12-17T15:06:00.809Z,1679.3
2022-12-17T15:07:00.841Z,1576.0
2022-12-17T15:08:00.806Z,1472.7
2022-12-17T15:09:00.809Z,1369.3
2022-12-17T15:10:02.129Z,1274.1
2022-12-17T15:11:00.992Z,1178.9
2022-12-17T15:12:00.843Z,1094.1
2022-12-17T15:13:01.142Z,1009.2
2022-12-17T15:14:00.801Z,924.3
2022-12-17T15:16:00.797Z,778.1
2022-12-17T15:17:01.019Z,711.5
2022-12-17T15:18:00.807Z,644.9
2022-12-17T15:19:00.822Z,578.3
2022-12-17T15:21:00.817Z,470.4
2022-12-17T15:22:00.803Z,428.4
2022-12-17T15:23:00.871Z,386.4
2022-12-17T15:24:00.806Z,344.4
2022-12-17T15:25:01.663Z,306.7
2022-12-17T15:26:00.800Z,269.1
2022-12-17T15:27:00.895Z,242.3
2022-12-17T15:28:00.810Z,215.6
2022-12-17T15:29:00.806Z,188.9
2022-12-17T15:31:00.875Z,143.0
2022-12-17T15:32:00.859Z,127.3
2022-12-17T15:33:00.803Z,111.7
2022-12-17T15:34:00.809Z,96.0
2022-12-17T15:36:00.806Z,71.7
2022-12-17T15:37:00.842Z,62.7
2022-12-17T15:38:00.817Z,53.7
2022-12-17T15:39:00.809Z,44.7
2022-12-17T15:41:05.817Z,33.4
2022-12-17T15:42:00.810Z,29.5
2022-12-17T15:43:05.994Z,25.7
2022-12-17T15:44:00.820Z,21.8
2022-12-17T15:46:00.894Z,16.3
2022-12-17T15:47:00.841Z,14.5
2022-12-17T15:48:00.849Z,12.7
2022-12-17T15:49:00.808Z,10.9
2022-12-17T15:51:00.908Z,8.3
2022-12-17T15:52:00.814Z,7.4
2022-12-17T15:53:00.813Z,6.5
2022-12-17T15:54:00.887Z,5.7
2022-12-17T15:55:02.202Z,5.1
2022-12-17T15:56:00.943Z,4.5
2022-12-17T15:57:00.882Z,4.1
2022-12-17T15:58:00.906Z,3.7
2022-12-17T15:59:00.813Z,3.3
2022-12-17T16:01:00.940Z,2.6
2022-12-17T16:02:02.205Z,2.4
2022-12-17T16:03:00.971Z,2.2
2022-12-17T16:04:00.966Z,2.0
2022-12-17T16:05:15.846Z,1.9
2022-12-17T16:06:01.175Z,1.7
2022-12-17T16:07:00.841Z,1.6
2022-12-17T16:08:00.827Z,1.5
2022-12-17T16:09:00.821Z,1.3
2022-12-17T16:11:01.106Z,1.2
2022-12-17T16:12:05.898Z,1.1
2022-12-17T16:14:00.890Z,1.0
2022-12-17T18:05:01.343Z,0.9
